Flight Track Log - Related Links

Times and Time Zones

All times are in EDT time to prevent confusion due to time zone crossing. See the JTA613 flight status page for this flight to view local times or setup timezone preferences in your user account.

Time Position Orientation Groundspeed Altitude Reporting Facility
EDT Latitude Longitude Course Direction KTS MPH feet Rate Location/Type
Mon 01:03:00 AM 26.0449 127.3540 240° Southwest  Level Estimated
Mon 01:04:00 AM 25.9958 127.2595 240° Southwest  Level Estimated
Mon 01:05:00 AM 25.9467 127.1651 240° Southwest  Level Estimated
Mon 01:06:00 AM 25.8975 127.0707 240° Southwest  Level Estimated
Mon 01:07:00 AM 25.8483 126.9765 240° Southwest  Level Estimated
Mon 01:08:00 AM 25.7989 126.8823 240° Southwest  Level Estimated
Mon 01:09:00 AM 25.7496 126.7882 240° Southwest  Level Estimated
Mon 01:10:00 AM 25.7001 126.6942 240° Southwest  Level Estimated
Mon 01:11:00 AM 25.6506 126.6002 240° Southwest  Level Estimated
Mon 01:12:00 AM 25.6011 126.5063 240° Southwest  Level Estimated
Mon 01:13:00 AM 25.5514 126.4126 240° Southwest  Level Estimated
Mon 01:14:00 AM 25.5018 126.3188 240° Southwest  Level Estimated
Mon 01:15:00 AM 25.4520 126.2252 240° Southwest  Level Estimated
Mon 01:16:00 AM 25.4022 126.1317 240° Southwest  Level Estimated
Mon 01:17:00 AM 25.3524 126.0382 239° Southwest  Level Estimated
Mon 01:18:00 AM 25.3025 125.9448 239° Southwest  Level Estimated
Mon 01:19:00 AM 25.2525 125.8514 239° Southwest  Level Estimated
Mon 01:20:00 AM 25.2025 125.7582 239° Southwest  Level Estimated
Mon 01:21:00 AM 25.1524 125.6650 239° Southwest  Level Estimated
Mon 01:22:00 AM 25.1022 125.5719 239° Southwest  Level Estimated
Mon 01:23:00 AM 25.0520 125.4789 239° Southwest  Level Estimated
Mon 01:24:00 AM 25.0018 125.3859 239° Southwest  Level Estimated
Mon 01:25:00 AM 24.9514 125.2931 239° Southwest  Level Estimated
Mon 01:26:00 AM 24.9011 125.2003 239° Southwest  Level Estimated
Mon 01:27:00 AM 24.8506 125.1076 239° Southwest  Level Estimated
Mon 01:28:00 AM 24.8001 125.0149 239° Southwest  Level Estimated
Mon 01:29:00 AM 24.7496 124.9223 239° Southwest  Level Estimated
Mon 01:30:00 AM 24.6990 124.8299 239° Southwest  Level Estimated
Mon 01:31:00 AM 24.6483 124.7374 239° Southwest  Level Estimated
Mon 01:32:00 AM 24.5976 124.6451 239° Southwest  Level Estimated
Mon 01:33:00 AM 24.5468 124.5528 239° Southwest  Level Estimated
Mon 01:34:00 AM 24.4960 124.4606 239° Southwest  Level Estimated
Mon 01:35:00 AM 24.4451 124.3685 239° Southwest  Level Estimated
Mon 01:36:00 AM 24.3941 124.2765 239° Southwest  Level Estimated
Mon 01:37:00 AM 24.3445 124.1870 239° Southwest  Level Estimated
Mon 01:38:00 AM 24.3445 124.1870 29° Northeast  Level Estimated
Mon 01:39:00 AM 24.3445 124.1870 29° Northeast  Level Estimated
Mon 01:40:00 AM 24.3445 124.1870 29° Northeast  Level Estimated
Mon 01:41:00 AM 24.3445 124.1870 29° Northeast  Level Estimated
Mon 01:42:00 AM 24.3445 124.1870 29° Northeast  Level Estimated
Mon 01:43:00 AM 24.3445 124.1870 29° Northeast  Level Estimated
Mon 01:44:00 AM 24.3445 124.1870 29° Northeast  Level Estimated
Mon 01:45:00 AM 24.3445 124.1870 29° Northeast  Level Estimated
Mon 01:46:00 AM 24.3445 124.1870 29° Northeast  Level Estimated
Mon 01:47:00 AM 24.3445 124.1870 29° Northeast  Level Estimated
Mon 01:48:00 AM 24.3445 124.1870 29° Northeast  Level Estimated
Mon 01:49:00 AM 24.3445 124.1870 29° Northeast  Level Estimated
Mon 01:50:00 AM 24.3445 124.1870 29° Northeast  Level Estimated
Mon 01:51:00 AM 24.3445 124.1870 29° Northeast  Level Estimated
Mon 01:52:00 AM 24.3445 124.1870 29° Northeast  Level Estimated
Mon 01:53:00 AM 24.3445 124.1870 29° Northeast  Level Estimated
Mon 01:54:00 AM 24.3445 124.1870 29° Northeast  Level Estimated

Login

Don't have an account? Register now (free) for customized features, flight alerts, and more!